createdAt,value
2023-07-02T00:02:00.813Z,20.65
2023-07-02T00:04:30.193Z,22.45
2023-07-02T00:07:03.327Z,24.83
2023-07-02T00:09:32.842Z,23.98
2023-07-02T00:11:59.808Z,23.13
2023-07-02T00:14:36.423Z,20.92
2023-07-02T00:17:08.211Z,19.67
2023-07-02T00:19:35.102Z,25.85
2023-07-02T00:22:05.529Z,20.25
2023-07-02T00:24:33.504Z,19.02
2023-07-02T00:27:01.331Z,21.55
2023-07-02T00:29:36.652Z,25.05
2023-07-02T00:32:06.902Z,25.60
2023-07-02T00:34:33.762Z,20.17
2023-07-02T00:37:03.301Z,24.30
2023-07-02T00:39:31.110Z,26.17
2023-07-02T00:42:05.243Z,26.17
2023-07-02T00:44:37.202Z,22.00
2023-07-02T00:47:05.184Z,28.08
2023-07-02T00:49:39.744Z,26.13
2023-07-02T00:52:29.497Z,27.38
2023-07-02T00:54:58.855Z,32.33
2023-07-02T00:57:31.761Z,27.60
2023-07-02T01:00:03.871Z,31.75
2023-07-02T01:02:35.536Z,26.52
2023-07-02T01:05:03.542Z,32.15
2023-07-02T01:07:30.509Z,26.58
2023-07-02T01:09:57.498Z,28.65
2023-07-02T01:12:24.415Z,34.17
2023-07-02T01:15:01.690Z,28.23
2023-07-02T01:17:38.834Z,30.25
2023-07-02T01:20:08.538Z,29.60
2023-07-02T01:22:35.493Z,40.28
2023-07-02T01:25:03.684Z,35.55
2023-07-02T01:27:31.274Z,35.05
2023-07-02T01:29:58.487Z,30.05
2023-07-02T01:32:25.275Z,34.63
2023-07-02T01:34:54.249Z,33.78
2023-07-02T01:37:21.171Z,30.98
2023-07-02T01:39:48.236Z,36.60
2023-07-02T01:42:18.403Z,35.08
2023-07-02T01:44:46.545Z,31.45
2023-07-02T01:47:14.258Z,34.20
2023-07-02T01:49:41.463Z,27.92
2023-07-02T01:52:10.677Z,33.10
2023-07-02T01:54:37.945Z,35.95
2023-07-02T01:57:08.275Z,34.90
2023-07-02T01:59:35.685Z,33.78
2023-07-02T02:02:05.757Z,32.47
2023-07-02T02:04:41.587Z,37.63
2023-07-02T02:07:08.762Z,32.67
2023-07-02T02:09:35.508Z,34.97
2023-07-02T02:12:02.109Z,38.78
2023-07-02T02:14:28.886Z,33.50
2023-07-02T02:17:00.904Z,32.50
2023-07-02T02:19:28.445Z,28.95
2023-07-02T02:21:55.139Z,32.63
2023-07-02T02:24:21.869Z,33.35
2023-07-02T02:26:48.438Z,33.00
2023-07-02T02:29:15.257Z,27.58
2023-07-02T02:31:44.685Z,32.42
2023-07-02T02:34:13.350Z,32.50
2023-07-02T02:36:41.098Z,28.38
2023-07-02T02:39:07.673Z,30.38
2023-07-02T02:41:34.604Z,33.13
2023-07-02T02:44:01.348Z,30.35
2023-07-02T02:46:28.377Z,28.52
2023-07-02T02:48:55.282Z,27.45
2023-07-02T02:51:22.393Z,28.02
2023-07-02T02:53:50.057Z,26.55
2023-07-02T02:56:17.248Z,24.27
2023-07-02T02:58:45.186Z,26.13
2023-07-02T03:01:12.213Z,29.08
2023-07-02T03:03:40.916Z,23.25
2023-07-02T03:06:07.789Z,24.17
2023-07-02T03:08:34.436Z,25.27
2023-07-02T03:11:01.142Z,20.45
2023-07-02T03:13:29.438Z,25.20
2023-07-02T03:15:56.148Z,23.15
2023-07-02T03:18:23.722Z,24.48
2023-07-02T03:20:50.621Z,20.98
2023-07-02T03:23:17.324Z,20.73
2023-07-02T03:25:43.943Z,25.25
2023-07-02T03:28:10.664Z,22.02
2023-07-02T03:30:37.899Z,19.35
2023-07-02T03:33:04.881Z,18.38
2023-07-02T03:35:31.532Z,18.02
2023-07-02T03:37:58.658Z,20.83
2023-07-02T03:40:25.306Z,20.52
2023-07-02T03:42:52.270Z,19.80
2023-07-02T03:45:18.997Z,23.33
2023-07-02T03:47:46.270Z,16.67
2023-07-02T03:50:13.185Z,18.38
2023-07-02T03:52:40.027Z,17.08
2023-07-02T03:55:07.313Z,20.00
2023-07-02T03:57:34.357Z,19.13
2023-07-02T04:00:01.278Z,17.83
2023-07-02T04:02:28.109Z,18.15
2023-07-02T04:04:54.883Z,21.48
2023-07-02T04:07:21.628Z,16.10
2023-07-02T04:09:48.319Z,15.73
2023-07-02T04:12:14.962Z,20.45
2023-07-02T04:14:41.603Z,20.63
2023-07-02T04:17:08.579Z,19.20
2023-07-02T04:19:35.194Z,25.45
2023-07-02T04:22:01.918Z,17.30
2023-07-02T04:24:28.748Z,19.50
2023-07-02T04:27:25.498Z,18.73
2023-07-02T04:29:43.209Z,15.80
2023-07-02T04:32:10.107Z,18.95
2023-07-02T04:34:37.613Z,19.30
2023-07-02T04:37:05.870Z,21.75
2023-07-02T04:39:33.171Z,21.15
2023-07-02T04:41:59.896Z,21.05
2023-07-02T04:44:32.444Z,20.60
2023-07-02T04:47:02.284Z,21.63
2023-07-02T04:49:28.957Z,24.10
2023-07-02T04:51:55.714Z,19.42
2023-07-02T04:54:23.898Z,22.58
2023-07-02T04:56:51.712Z,20.70
2023-07-02T04:59:18.440Z,19.45
2023-07-02T05:01:46.147Z,19.75
2023-07-02T05:04:13.102Z,20.48
2023-07-02T05:06:40.317Z,21.20
2023-07-02T05:09:07.221Z,21.50
2023-07-02T05:11:36.827Z,20.33
2023-07-02T05:14:03.600Z,19.95
2023-07-02T05:16:30.355Z,16.83
2023-07-02T05:18:57.114Z,19.10
2023-07-02T05:21:24.394Z,22.60
2023-07-02T05:23:51.162Z,22.13
2023-07-02T05:26:17.804Z,18.55
2023-07-02T05:28:45.472Z,21.02
2023-07-02T05:31:12.309Z,21.27
2023-07-02T05:33:40.034Z,15.52
2023-07-02T05:36:06.942Z,23.85
2023-07-02T05:38:34.056Z,22.80
2023-07-02T05:41:00.739Z,15.50
2023-07-02T05:43:27.678Z,18.90
2023-07-02T05:45:54.884Z,17.80
2023-07-02T05:48:22.092Z,22.92
2023-07-02T05:50:48.929Z,16.55
2023-07-02T05:53:15.843Z,15.68
2023-07-02T05:55:43.234Z,19.52
2023-07-02T05:58:09.996Z,15.15
2023-07-02T06:00:37.388Z,16.48
2023-07-02T06:03:04.710Z,17.50
2023-07-02T06:05:32.393Z,15.32
2023-07-02T06:08:01.953Z,15.63
2023-07-02T06:10:28.885Z,16.27
2023-07-02T06:12:57.881Z,13.85
2023-07-02T06:15:24.680Z,18.17
2023-07-02T06:17:51.364Z,16.17
2023-07-02T06:20:18.138Z,16.00
2023-07-02T06:22:44.796Z,12.15
2023-07-02T06:25:14.528Z,14.18
2023-07-02T06:27:41.257Z,17.23
2023-07-02T06:30:08.539Z,20.02
2023-07-02T06:32:35.169Z,16.15
2023-07-02T06:35:01.885Z,17.35
2023-07-02T06:37:28.524Z,17.20
2023-07-02T06:39:55.185Z,15.35
2023-07-02T06:42:22.108Z,14.85
2023-07-02T06:44:48.774Z,13.50
2023-07-02T06:47:15.394Z,15.68
2023-07-02T06:49:42.063Z,17.52
2023-07-02T06:52:08.728Z,13.18
2023-07-02T06:54:35.622Z,12.73
2023-07-02T06:57:04.908Z,16.92
2023-07-02T06:59:31.749Z,13.18
2023-07-02T07:01:58.373Z,16.08
2023-07-02T07:04:25.336Z,13.10
2023-07-02T07:06:52.779Z,15.05
2023-07-02T07:09:19.489Z,9.75
2023-07-02T07:11:46.157Z,16.80
2023-07-02T07:14:14.088Z,9.13
2023-07-02T07:16:40.867Z,15.93
2023-07-02T07:19:08.536Z,14.63
2023-07-02T07:21:36.182Z,17.77
2023-07-02T07:24:04.341Z,12.15
2023-07-02T07:26:31.411Z,11.38
2023-07-02T07:28:59.005Z,11.05
2023-07-02T07:31:26.149Z,12.77
2023-07-02T07:33:52.828Z,16.95
2023-07-02T07:36:20.311Z,15.60
2023-07-02T07:38:47.061Z,13.13
2023-07-02T07:41:13.596Z,12.85
2023-07-02T07:43:40.589Z,16.00
2023-07-02T07:46:07.413Z,13.75
2023-07-02T07:48:34.503Z,13.82
2023-07-02T07:51:01.160Z,17.00
2023-07-02T07:53:27.982Z,15.07
2023-07-02T07:55:54.675Z,16.35
2023-07-02T07:58:21.479Z,14.65
2023-07-02T08:00:48.437Z,11.45
2023-07-02T08:03:16.419Z,16.27
2023-07-02T08:05:43.211Z,15.60
2023-07-02T08:13:00.051Z,19.25
2023-07-02T08:37:22.284Z,12.73
2023-07-02T09:34:30.118Z,12.13
2023-07-02T09:52:38.629Z,12.68
2023-07-02T09:55:57.202Z,13.50
2023-07-02T09:59:32.086Z,14.52
2023-07-02T10:02:11.088Z,13.63
2023-07-02T10:04:42.833Z,13.43
2023-07-02T10:07:09.626Z,14.88
2023-07-02T10:09:37.598Z,15.32
2023-07-02T10:12:26.415Z,16.83
2023-07-02T10:14:57.002Z,15.05
2023-07-02T10:17:32.818Z,16.88
2023-07-02T10:20:08.179Z,13.77
2023-07-02T10:22:45.518Z,16.48
2023-07-02T10:25:12.517Z,15.63
2023-07-02T10:27:43.188Z,17.73
2023-07-02T10:30:11.673Z,15.68
2023-07-02T10:32:39.414Z,13.80
2023-07-02T10:35:19.724Z,21.13
2023-07-02T10:37:47.012Z,16.45
2023-07-02T10:40:14.301Z,13.60
2023-07-02T10:42:51.692Z,16.65
2023-07-02T10:45:19.612Z,16.17
2023-07-02T10:47:46.986Z,15.13
2023-07-02T10:50:24.342Z,18.67
2023-07-02T10:52:51.997Z,21.75
2023-07-02T10:55:23.842Z,18.27
2023-07-02T10:58:04.343Z,17.83
2023-07-02T11:00:31.553Z,17.02
2023-07-02T11:02:59.124Z,14.15
2023-07-02T11:05:29.880Z,16.05
2023-07-02T11:08:09.188Z,14.80
2023-07-02T11:10:36.282Z,14.38
2023-07-02T11:13:14.776Z,17.23
2023-07-02T11:15:47.222Z,16.15
2023-07-02T11:18:17.692Z,17.48
2023-07-02T11:20:48.329Z,13.98
2023-07-02T11:23:23.613Z,13.65
2023-07-02T11:26:01.559Z,8.30
2023-07-02T11:28:31.852Z,11.27
2023-07-02T11:30:59.845Z,16.05
2023-07-02T11:33:36.491Z,15.10
2023-07-02T11:36:04.139Z,14.43
2023-07-02T11:38:31.246Z,11.52
2023-07-02T11:40:57.933Z,16.02
2023-07-02T11:43:24.650Z,12.32
2023-07-02T11:45:51.528Z,12.57
2023-07-02T11:48:18.332Z,10.38
2023-07-02T11:50:44.972Z,9.40
2023-07-02T11:53:11.971Z,10.20
2023-07-02T11:55:38.941Z,11.57
2023-07-02T11:58:05.540Z,11.73
2023-07-02T12:00:32.216Z,12.20
2023-07-02T12:02:59.288Z,12.05
2023-07-02T12:05:26.601Z,11.48
2023-07-02T12:07:53.755Z,14.10
2023-07-02T12:10:20.630Z,10.43
2023-07-02T12:12:47.300Z,8.18
2023-07-02T12:15:14.030Z,11.90
2023-07-02T12:17:40.858Z,10.70
2023-07-02T12:20:08.054Z,10.38
2023-07-02T12:22:34.741Z,7.80
2023-07-02T12:25:01.429Z,9.00
2023-07-02T12:27:28.271Z,8.30
2023-07-02T12:29:57.599Z,9.43
2023-07-02T12:32:24.435Z,6.95
2023-07-02T12:34:52.064Z,10.68
2023-07-02T12:37:20.078Z,7.13
2023-07-02T12:39:46.968Z,10.20
2023-07-02T12:42:13.807Z,7.85
2023-07-02T12:44:40.391Z,5.57
2023-07-02T12:47:07.044Z,7.43
2023-07-02T12:49:36.719Z,6.80
2023-07-02T12:52:05.728Z,5.47
2023-07-02T12:54:37.192Z,9.10
2023-07-02T12:58:15.812Z,8.02
2023-07-02T13:01:01.034Z,7.40
2023-07-02T13:08:31.366Z,7.57
2023-07-02T13:10:58.239Z,8.95
2023-07-02T13:13:26.284Z,7.50
2023-07-02T13:15:54.498Z,11.68
2023-07-02T13:18:21.311Z,8.07
2023-07-02T13:20:48.388Z,13.20
2023-07-02T13:23:15.310Z,8.32
2023-07-02T13:25:42.269Z,12.60
2023-07-02T13:28:08.920Z,9.20
2023-07-02T13:30:35.615Z,7.55
2023-07-02T13:33:02.757Z,8.95
2023-07-02T13:35:29.437Z,10.07
2023-07-02T13:37:56.125Z,9.13
2023-07-02T13:40:24.852Z,10.45
2023-07-02T13:42:51.530Z,10.43
2023-07-02T13:45:18.392Z,10.98
2023-07-02T13:47:46.558Z,10.93
2023-07-02T13:50:14.949Z,10.57
2023-07-02T13:52:41.621Z,10.43
2023-07-02T13:55:08.663Z,10.63
2023-07-02T13:57:35.344Z,8.70
2023-07-02T14:00:02.237Z,12.32
2023-07-02T14:02:33.016Z,9.60
2023-07-02T14:05:00.962Z,11.00
2023-07-02T14:07:28.221Z,9.60
2023-07-02T14:09:56.937Z,8.82
2023-07-02T14:12:23.578Z,9.43
2023-07-02T14:14:50.276Z,12.77
2023-07-02T14:17:17.089Z,12.63
2023-07-02T14:19:44.965Z,9.35
2023-07-02T14:22:12.251Z,11.75
2023-07-02T14:24:39.204Z,9.43
2023-07-02T14:27:06.098Z,16.90
2023-07-02T14:29:33.064Z,11.52
2023-07-02T14:31:59.949Z,11.50
2023-07-02T14:34:29.846Z,13.93
2023-07-02T14:36:59.420Z,11.32
2023-07-02T14:39:26.472Z,12.73
2023-07-02T14:41:53.269Z,11.20
2023-07-02T14:44:20.478Z,11.98
2023-07-02T14:46:47.136Z,8.25
2023-07-02T14:49:14.027Z,14.05
2023-07-02T14:51:41.718Z,12.45
2023-07-02T14:54:15.257Z,11.30
2023-07-02T14:56:41.974Z,11.15
2023-07-02T14:59:10.104Z,9.73
2023-07-02T15:01:39.385Z,16.67
2023-07-02T15:04:06.354Z,10.73
2023-07-02T15:06:37.052Z,8.48
2023-07-02T15:09:04.236Z,9.82
2023-07-02T15:24:26.229Z,12.68
2023-07-02T16:26:19.068Z,15.43
2023-07-02T16:57:38.539Z,12.35
2023-07-02T17:14:58.724Z,17.00
2023-07-02T17:17:29.678Z,18.25
2023-07-02T17:19:59.348Z,14.23
2023-07-02T17:22:28.849Z,12.30
2023-07-02T17:24:57.823Z,20.27
2023-07-02T17:27:28.531Z,16.83
2023-07-02T17:29:58.519Z,18.38
2023-07-02T17:32:33.956Z,16.08
2023-07-02T17:35:00.856Z,13.48
2023-07-02T17:37:30.761Z,13.30
2023-07-02T17:39:58.156Z,15.43
2023-07-02T17:53:21.368Z,13.77
2023-07-02T17:55:52.377Z,21.65
2023-07-02T17:58:19.250Z,14.35
2023-07-02T18:00:48.706Z,19.50
2023-07-02T18:03:18.829Z,16.92
2023-07-02T18:05:46.060Z,14.77
2023-07-02T18:08:12.783Z,16.20
2023-07-02T18:10:40.967Z,16.95
2023-07-02T18:13:08.305Z,18.42
2023-07-02T18:15:35.272Z,17.48
2023-07-02T18:18:02.106Z,16.52
2023-07-02T18:20:29.990Z,20.45
2023-07-02T18:22:56.787Z,17.50
2023-07-02T18:25:23.404Z,15.25
2023-07-02T18:28:06.043Z,16.15
2023-07-02T18:30:33.275Z,19.60
2023-07-02T18:33:00.366Z,17.67
2023-07-02T18:35:27.046Z,22.33
2023-07-02T18:37:53.835Z,16.35
2023-07-02T18:40:23.153Z,21.55
2023-07-02T18:42:50.342Z,23.67
2023-07-02T18:45:17.856Z,21.35
2023-07-02T18:55:41.450Z,19.35
2023-07-02T18:58:37.670Z,15.93
2023-07-02T19:11:54.410Z,19.58
2023-07-02T19:20:25.267Z,25.38
2023-07-02T19:32:41.295Z,17.77
2023-07-02T19:41:08.359Z,15.52
2023-07-02T20:15:06.560Z,13.55
2023-07-02T21:04:16.345Z,18.15
2023-07-02T21:06:43.128Z,15.05
2023-07-02T22:08:06.703Z,18.20
2023-07-02T22:15:09.174Z,12.38
2023-07-02T22:17:36.614Z,15.68
2023-07-02T22:30:05.957Z,11.55
2023-07-02T22:33:59.759Z,14.02
2023-07-02T23:03:41.531Z,9.30
2023-07-02T23:28:37.317Z,16.83
2023-07-02T23:31:53.992Z,17.65
2023-07-02T23:58:28.347Z,15.15
